createdAt,value
2019-04-06T00:01:46.408Z,26.33
2019-04-06T00:04:15.584Z,27.33
2019-04-06T00:06:44.810Z,25.10
2019-04-06T00:09:14.035Z,27.27
2019-04-06T00:11:43.326Z,24.80
2019-04-06T00:14:12.480Z,27.67
2019-04-06T00:16:41.725Z,27.73
2019-04-06T00:19:11.010Z,27.43
2019-04-06T00:21:40.159Z,26.77
2019-04-06T00:24:09.437Z,27.50
2019-04-06T00:26:38.615Z,26.97
2019-04-06T00:29:07.873Z,28.03
2019-04-06T00:31:59.125Z,28.30
2019-04-06T00:34:28.353Z,26.60
2019-04-06T00:36:57.559Z,28.03
2019-04-06T00:39:26.812Z,26.57
2019-04-06T00:41:56.060Z,27.20
2019-04-06T00:44:25.381Z,27.90
2019-04-06T00:46:54.574Z,27.07
2019-04-06T00:49:23.741Z,27.45
2019-04-06T00:51:52.902Z,27.17
2019-04-06T00:54:22.099Z,25.13
2019-04-06T00:56:51.261Z,26.03
2019-04-06T00:59:20.512Z,26.93
2019-04-06T01:01:49.756Z,25.17
2019-04-06T01:04:19.023Z,28.90
2019-04-06T01:06:48.220Z,26.40
2019-04-06T01:09:17.754Z,26.70
2019-04-06T01:11:46.982Z,27.53
2019-04-06T01:14:16.297Z,26.30
2019-04-06T01:16:45.606Z,26.77
2019-04-06T01:19:14.824Z,27.00
2019-04-06T01:21:43.984Z,27.17
2019-04-06T01:24:13.177Z,29.60
2019-04-06T01:26:42.402Z,30.07
2019-04-06T01:29:11.581Z,28.00
2019-04-06T01:31:40.817Z,28.27
2019-04-06T01:34:09.970Z,27.50
2019-04-06T01:36:39.157Z,27.98
2019-04-06T01:39:08.535Z,28.23
2019-04-06T01:41:37.851Z,26.93
2019-04-06T01:44:07.107Z,27.83
2019-04-06T01:46:36.338Z,24.30
2019-04-06T01:49:05.571Z,26.60
2019-04-06T01:51:34.747Z,26.63
2019-04-06T01:54:04.178Z,28.27
2019-04-06T01:56:33.492Z,25.60
2019-04-06T01:59:02.742Z,27.70
2019-04-06T02:01:39.524Z,30.03
2019-04-06T02:04:08.774Z,26.17
2019-04-06T02:06:37.916Z,26.90
2019-04-06T02:09:07.180Z,28.40
2019-04-06T02:11:36.326Z,26.27
2019-04-06T02:14:05.627Z,27.57
2019-04-06T02:16:34.840Z,27.27
2019-04-06T02:19:04.040Z,26.30
2019-04-06T02:21:33.415Z,27.37
2019-04-06T02:24:02.653Z,26.80
2019-04-06T02:26:31.832Z,28.27
2019-04-06T02:29:01.202Z,30.70
2019-04-06T02:31:55.540Z,31.53
2019-04-06T02:34:42.845Z,26.67
2019-04-06T02:37:29.744Z,27.27
2019-04-06T02:40:16.559Z,28.43
2019-04-06T02:42:50.112Z,28.20
2019-04-06T02:45:19.292Z,25.00
2019-04-06T02:47:48.569Z,25.90
2019-04-06T02:50:17.862Z,24.63
2019-04-06T02:52:47.028Z,23.97
2019-04-06T02:55:16.283Z,26.10
2019-04-06T02:57:45.482Z,24.97
2019-04-06T03:00:14.930Z,26.10
2019-04-06T03:02:44.154Z,25.77
2019-04-06T03:05:13.954Z,23.15
2019-04-06T03:07:43.197Z,23.87
2019-04-06T03:10:12.515Z,23.47
2019-04-06T03:12:41.763Z,26.65
2019-04-06T03:15:11.005Z,25.80
2019-04-06T03:17:40.230Z,24.95
2019-04-06T03:20:09.538Z,22.80
2019-04-06T03:22:38.722Z,24.70
2019-04-06T03:25:08.109Z,24.40
2019-04-06T03:27:37.369Z,25.93
2019-04-06T03:30:07.248Z,26.63
2019-04-06T03:32:36.485Z,26.60
2019-04-06T03:35:06.661Z,26.30
2019-04-06T03:37:35.955Z,26.03
2019-04-06T03:40:05.799Z,26.07
2019-04-06T03:42:35.067Z,26.90
2019-04-06T03:45:04.438Z,26.03
2019-04-06T03:47:34.076Z,25.63
2019-04-06T03:50:03.498Z,23.90
2019-04-06T03:52:32.960Z,23.40
2019-04-06T03:55:02.334Z,26.03
2019-04-06T03:57:31.642Z,22.97
2019-04-06T04:00:00.906Z,23.25
2019-04-06T04:02:30.114Z,23.80
2019-04-06T04:04:59.293Z,23.63
2019-04-06T04:07:28.611Z,21.73
2019-04-06T04:09:57.800Z,22.67
2019-04-06T04:12:27.001Z,20.68
2019-04-06T04:14:56.180Z,20.70
2019-04-06T04:17:25.429Z,22.90
2019-04-06T04:19:54.727Z,22.58
2019-04-06T04:22:23.936Z,21.40
2019-04-06T04:24:53.167Z,20.85
2019-04-06T04:27:29.639Z,20.33
2019-04-06T04:29:53.500Z,19.43
2019-04-06T04:32:22.731Z,20.77
2019-04-06T04:34:51.964Z,24.07
2019-04-06T04:37:21.173Z,22.70
2019-04-06T04:39:50.479Z,22.70
2019-04-06T04:42:19.680Z,24.60
2019-04-06T04:44:48.877Z,23.67
2019-04-06T04:47:18.075Z,21.07
2019-04-06T04:49:47.239Z,20.97
2019-04-06T04:52:16.589Z,20.43
2019-04-06T04:54:45.921Z,20.13
2019-04-06T04:57:15.106Z,20.83
2019-04-06T04:59:44.376Z,19.67
2019-04-06T05:02:13.744Z,21.77
2019-04-06T05:04:42.957Z,21.15
2019-04-06T05:07:12.221Z,18.07
2019-04-06T05:09:41.514Z,19.93
2019-04-06T05:12:10.780Z,20.73
2019-04-06T05:15:03.676Z,20.23
2019-04-06T05:17:32.884Z,18.30
2019-04-06T05:20:02.051Z,18.40
2019-04-06T05:22:31.491Z,19.60
2019-04-06T05:25:00.773Z,18.90
2019-04-06T05:27:29.952Z,20.03
2019-04-06T05:29:59.169Z,20.67
2019-04-06T05:32:28.461Z,20.17
2019-04-06T05:34:58.368Z,19.42
2019-04-06T05:37:27.738Z,20.23
2019-04-06T05:39:56.973Z,20.62
2019-04-06T05:42:26.185Z,20.13
2019-04-06T05:44:55.388Z,19.67
2019-04-06T05:47:24.618Z,20.20
2019-04-06T05:49:53.887Z,19.23
2019-04-06T05:52:23.113Z,23.50
2019-04-06T05:54:52.347Z,19.33
2019-04-06T05:57:21.517Z,21.23
2019-04-06T05:59:50.846Z,21.70
2019-04-06T06:02:20.097Z,23.13
2019-04-06T06:04:49.378Z,20.37
2019-04-06T06:07:18.572Z,19.50
2019-04-06T06:09:48.212Z,21.27
2019-04-06T06:12:17.469Z,21.80
2019-04-06T06:14:46.721Z,22.77
2019-04-06T06:17:15.968Z,19.00
2019-04-06T06:19:45.147Z,20.50
2019-04-06T06:22:14.319Z,20.40
2019-04-06T06:24:43.574Z,21.63
2019-04-06T06:27:12.792Z,19.73
2019-04-06T06:29:41.958Z,20.20
2019-04-06T06:32:11.144Z,19.63
2019-04-06T06:34:40.397Z,19.67
2019-04-06T06:37:09.637Z,19.47
2019-04-06T06:39:38.811Z,20.00
2019-04-06T06:42:08.059Z,20.40
2019-04-06T06:44:37.265Z,20.33
2019-04-06T06:47:06.530Z,21.57
2019-04-06T06:49:35.724Z,20.37
2019-04-06T06:52:04.977Z,20.20
2019-04-06T06:54:34.191Z,18.50
2019-04-06T06:57:03.441Z,20.60
2019-04-06T06:59:32.677Z,21.57
2019-04-06T07:02:02.005Z,23.85
2019-04-06T07:04:31.263Z,20.70
2019-04-06T07:07:00.486Z,19.77
2019-04-06T07:09:29.821Z,20.77
2019-04-06T07:11:59.027Z,21.93
2019-04-06T07:14:28.186Z,21.77
2019-04-06T07:16:57.408Z,20.80
2019-04-06T07:19:26.718Z,21.67
2019-04-06T07:21:56.150Z,19.70
2019-04-06T07:24:25.427Z,19.43
2019-04-06T07:26:54.620Z,22.53
2019-04-06T07:29:24.014Z,20.93
2019-04-06T07:31:53.325Z,20.47
2019-04-06T07:34:22.506Z,23.30
2019-04-06T07:36:52.200Z,22.20
2019-04-06T07:39:21.588Z,21.70
2019-04-06T07:41:50.844Z,21.07
2019-04-06T07:44:20.016Z,20.77
2019-04-06T07:46:49.357Z,19.07
2019-04-06T07:49:18.663Z,19.90
2019-04-06T07:51:48.044Z,19.25
2019-04-06T07:54:17.278Z,23.27
2019-04-06T07:56:46.648Z,19.80
2019-04-06T07:59:15.969Z,19.93
2019-04-06T08:01:45.366Z,24.10
2019-04-06T08:04:14.835Z,20.88
2019-04-06T08:06:44.107Z,22.70
2019-04-06T08:09:13.316Z,25.03
2019-04-06T08:11:42.604Z,24.63
2019-04-06T08:14:11.835Z,25.73
2019-04-06T08:16:41.019Z,27.10
2019-04-06T08:19:10.260Z,27.00
2019-04-06T08:21:39.594Z,24.17
2019-04-06T08:24:08.882Z,25.07
2019-04-06T08:26:38.076Z,26.20
2019-04-06T08:29:07.285Z,26.35
2019-04-06T08:31:36.671Z,25.57
2019-04-06T08:34:06.040Z,23.83
2019-04-06T08:36:35.269Z,27.27
2019-04-06T08:39:07.015Z,26.77
2019-04-06T08:41:36.536Z,27.93
2019-04-06T08:44:05.915Z,25.08
2019-04-06T08:46:35.137Z,27.07
2019-04-06T08:49:04.504Z,25.50
2019-04-06T08:51:33.718Z,27.90
2019-04-06T08:54:03.169Z,27.67
2019-04-06T08:56:32.484Z,27.67
2019-04-06T08:59:11.280Z,28.60
2019-04-06T09:01:33.377Z,26.73
2019-04-06T09:04:03.335Z,26.37
2019-04-06T09:06:32.840Z,24.47
2019-04-06T09:09:04.510Z,26.33
2019-04-06T09:11:33.746Z,25.83
2019-04-06T09:14:02.996Z,26.50
2019-04-06T09:16:32.171Z,23.97
2019-04-06T09:19:01.333Z,27.90
2019-04-06T09:21:30.824Z,25.20
2019-04-06T09:24:00.075Z,25.27
2019-04-06T09:26:29.361Z,26.17
2019-04-06T09:28:59.710Z,23.67
2019-04-06T09:31:29.234Z,24.30
2019-04-06T09:33:58.612Z,23.37
2019-04-06T09:36:27.875Z,24.07
2019-04-06T09:38:57.328Z,25.47
2019-04-06T09:41:26.680Z,23.80
2019-04-06T09:43:55.977Z,26.17
2019-04-06T09:46:38.021Z,22.23
2019-04-06T09:49:26.219Z,24.70
2019-04-06T09:52:05.241Z,25.50
2019-04-06T09:54:40.563Z,25.73
2019-04-06T09:57:28.079Z,25.70
2019-04-06T10:00:15.153Z,24.33
2019-04-06T10:03:18.782Z,24.57
2019-04-06T10:06:10.040Z,24.43
2019-04-06T10:08:56.617Z,25.43
2019-04-06T10:11:54.091Z,27.63
2019-04-06T10:14:42.279Z,25.57
2019-04-06T10:17:20.758Z,24.60
2019-04-06T10:20:24.209Z,25.13
2019-04-06T10:23:21.377Z,24.07
2019-04-06T10:26:12.386Z,24.43
2019-04-06T10:29:09.660Z,25.27
2019-04-06T10:31:56.370Z,24.47
2019-04-06T10:34:36.995Z,22.00
2019-04-06T10:37:28.257Z,22.67
2019-04-06T10:40:04.638Z,22.53
2019-04-06T10:42:52.853Z,22.97
2019-04-06T10:45:32.346Z,23.62
2019-04-06T10:48:11.538Z,22.10
2019-04-06T10:51:17.960Z,21.57
2019-04-06T10:54:02.330Z,19.57
2019-04-06T10:56:54.384Z,18.77
2019-04-06T10:59:41.317Z,19.97
2019-04-06T11:02:28.210Z,18.90
2019-04-06T11:05:15.079Z,19.80
2019-04-06T11:07:51.193Z,21.10
2019-04-06T11:10:39.651Z,20.27
2019-04-06T11:13:27.849Z,17.73
2019-04-06T11:16:14.699Z,19.50
2019-04-06T11:19:09.023Z,18.07
2019-04-06T11:22:02.518Z,18.27
2019-04-06T11:24:49.400Z,16.85
2019-04-06T11:27:36.575Z,17.37
2019-04-06T11:30:38.549Z,20.80
2019-04-06T11:33:25.211Z,20.82
2019-04-06T11:36:16.187Z,18.20
2019-04-06T11:39:03.083Z,18.30
2019-04-06T11:41:49.780Z,18.40
2019-04-06T11:44:41.960Z,20.00
2019-04-06T11:47:28.938Z,17.07
2019-04-06T11:50:15.919Z,19.02
2019-04-06T11:53:04.349Z,19.20
2019-04-06T11:55:55.350Z,18.67
2019-04-06T11:58:43.550Z,20.70
2019-04-06T12:01:31.850Z,19.93
2019-04-06T12:04:19.351Z,18.33
2019-04-06T12:07:07.694Z,21.07
2019-04-06T12:09:54.858Z,18.77
2019-04-06T12:12:49.195Z,19.57
2019-04-06T12:15:40.257Z,18.17
2019-04-06T12:18:18.595Z,19.37
2019-04-06T12:21:22.015Z,17.62
2019-04-06T12:24:09.199Z,17.83
2019-04-06T12:26:57.423Z,17.17
2019-04-06T12:29:48.905Z,16.77
2019-04-06T12:32:35.903Z,15.13
2019-04-06T12:35:33.900Z,16.10
2019-04-06T12:38:31.148Z,14.90
2019-04-06T12:41:19.613Z,14.30
2019-04-06T12:44:06.624Z,13.30
2019-04-06T12:46:57.944Z,13.07
2019-04-06T12:49:46.201Z,12.37
2019-04-06T12:52:33.405Z,13.73
2019-04-06T12:55:08.307Z,12.80
2019-04-06T12:58:08.328Z,12.57
2019-04-06T13:00:59.362Z,13.30
2019-04-06T13:03:48.444Z,10.70
2019-04-06T13:06:39.373Z,11.60
2019-04-06T13:09:18.012Z,11.83
2019-04-06T13:11:55.596Z,11.73
2019-04-06T13:14:43.215Z,11.20
2019-04-06T13:17:43.697Z,12.13
2019-04-06T13:20:30.423Z,11.77
2019-04-06T13:23:10.680Z,10.83
2019-04-06T13:25:58.967Z,10.20
2019-04-06T13:28:41.432Z,11.97
2019-04-06T13:31:26.831Z,12.03
2019-04-06T13:34:20.850Z,11.20
2019-04-06T13:37:14.998Z,11.23
2019-04-06T13:39:50.694Z,11.12
2019-04-06T13:42:28.161Z,9.90
2019-04-06T13:45:25.691Z,9.60
2019-04-06T13:48:17.009Z,10.93
2019-04-06T13:50:54.937Z,10.00
2019-04-06T13:53:49.029Z,9.60
2019-04-06T13:56:35.877Z,10.20
2019-04-06T13:59:11.815Z,10.63
2019-04-06T14:02:15.273Z,10.63
2019-04-06T14:04:51.369Z,10.90
2019-04-06T14:07:28.169Z,9.30
2019-04-06T14:10:03.831Z,9.30
2019-04-06T14:13:04.028Z,8.57
2019-04-06T14:15:57.852Z,9.37
2019-04-06T14:18:44.455Z,10.03
2019-04-06T14:21:35.698Z,10.60
2019-04-06T14:24:38.905Z,9.40
2019-04-06T14:27:30.113Z,10.90
2019-04-06T14:30:24.269Z,9.50
2019-04-06T14:33:24.689Z,10.67
2019-04-06T14:36:22.185Z,10.03
2019-04-06T14:39:10.631Z,11.13
2019-04-06T14:41:57.722Z,9.27
2019-04-06T14:44:42.723Z,10.53
2019-04-06T14:47:33.856Z,10.23
2019-04-06T14:50:13.691Z,10.03
2019-04-06T14:53:04.745Z,7.90
2019-04-06T14:55:40.198Z,7.83
2019-04-06T14:58:31.750Z,7.20
2019-04-06T15:01:45.514Z,6.70
2019-04-06T15:04:37.446Z,6.60
2019-04-06T15:07:28.282Z,6.90
2019-04-06T15:10:04.363Z,7.00
2019-04-06T15:12:46.485Z,5.77
2019-04-06T15:15:37.531Z,5.22
2019-04-06T15:18:24.357Z,5.83
2019-04-06T15:21:07.261Z,5.77
2019-04-06T15:23:53.859Z,5.30
2019-04-06T15:26:30.479Z,6.00
2019-04-06T15:29:18.860Z,4.28
2019-04-06T15:31:58.837Z,4.47
2019-04-06T15:34:49.806Z,4.40
2019-04-06T15:37:49.972Z,4.60
2019-04-06T15:40:38.266Z,4.72
2019-04-06T15:43:29.448Z,4.00
2019-04-06T15:46:32.543Z,5.13
2019-04-06T15:49:26.832Z,4.23
2019-04-06T15:52:19.379Z,3.60
2019-04-06T15:54:59.741Z,3.60
2019-04-06T15:57:48.001Z,4.50
2019-04-06T16:00:32.133Z,4.42
2019-04-06T16:03:16.913Z,3.70
2019-04-06T16:05:56.843Z,3.47
2019-04-06T16:09:00.062Z,3.43
2019-04-06T16:11:51.219Z,3.20
2019-04-06T16:14:42.564Z,3.13
2019-04-06T16:17:24.094Z,3.13
2019-04-06T16:20:18.529Z,3.60
2019-04-06T16:23:18.987Z,2.97
2019-04-06T16:25:54.081Z,2.90
2019-04-06T16:28:53.782Z,4.37
2019-04-06T16:31:40.096Z,3.93
2019-04-06T16:34:37.397Z,3.98
2019-04-06T16:37:25.624Z,4.43
2019-04-06T16:40:05.831Z,3.93
2019-04-06T16:42:43.392Z,4.13
2019-04-06T16:45:24.549Z,3.80
2019-04-06T16:48:09.075Z,3.77
2019-04-06T16:51:04.035Z,3.30
2019-04-06T16:54:01.206Z,3.83
2019-04-06T16:56:49.650Z,5.27
2019-04-06T16:59:40.895Z,4.65
2019-04-06T17:02:24.415Z,4.80
2019-04-06T17:04:59.362Z,3.87
2019-04-06T17:07:39.924Z,7.50
2019-04-06T17:10:31.253Z,5.30
2019-04-06T17:13:15.320Z,18.93
2019-04-06T17:15:56.267Z,4.70
2019-04-06T17:18:47.484Z,5.40
2019-04-06T17:21:42.095Z,7.47
2019-04-06T17:24:36.294Z,4.30
2019-04-06T17:27:15.188Z,4.10
2019-04-06T17:30:03.260Z,3.17
2019-04-06T17:32:45.994Z,3.17
2019-04-06T17:35:33.465Z,4.03
2019-04-06T17:38:20.502Z,5.70
2019-04-06T17:41:14.866Z,13.90
2019-04-06T17:43:51.683Z,7.90
2019-04-06T17:46:36.865Z,6.23
2019-04-06T17:49:17.268Z,6.10
2019-04-06T17:52:04.063Z,5.23
2019-04-06T17:55:01.233Z,5.60
2019-04-06T17:57:52.483Z,20.62
2019-04-06T18:00:53.037Z,5.22
2019-04-06T18:03:33.217Z,4.50
2019-04-06T18:06:12.703Z,5.10
2019-04-06T18:09:00.179Z,9.90
2019-04-06T18:12:00.806Z,8.00
2019-04-06T18:14:30.350Z,4.03
2019-04-06T18:16:59.706Z,4.47
2019-04-06T18:19:29.778Z,4.67
2019-04-06T18:21:59.560Z,4.63
2019-04-06T18:24:28.764Z,7.55
2019-04-06T18:26:58.324Z,5.53
2019-04-06T18:29:27.915Z,3.80
2019-04-06T18:32:07.175Z,3.77
2019-04-06T18:34:36.554Z,4.00
2019-04-06T18:37:25.669Z,4.03
2019-04-06T18:39:55.720Z,3.73
2019-04-06T18:42:24.967Z,5.20
2019-04-06T18:44:54.552Z,13.77
2019-04-06T18:47:24.196Z,4.00
2019-04-06T18:49:53.559Z,4.37
2019-04-06T18:52:23.667Z,21.63
2019-04-06T18:54:52.933Z,4.37
2019-04-06T18:57:22.111Z,4.17
2019-04-06T18:59:51.501Z,3.53
2019-04-06T19:02:21.288Z,2.70
2019-04-06T19:04:50.665Z,21.83
2019-04-06T19:07:19.914Z,3.60
2019-04-06T19:09:49.195Z,3.63
2019-04-06T19:12:18.511Z,4.70
2019-04-06T19:14:47.711Z,8.07
2019-04-06T19:17:17.461Z,4.70
2019-04-06T19:19:46.809Z,17.93
2019-04-06T19:22:16.490Z,2.80
2019-04-06T19:24:46.330Z,2.80
2019-04-06T19:27:15.651Z,2.95
2019-04-06T19:29:44.845Z,2.40
2019-04-06T19:32:14.151Z,3.20
2019-04-06T19:34:43.792Z,3.40
2019-04-06T19:37:13.083Z,2.10
2019-04-06T19:39:42.313Z,2.47
2019-04-06T19:42:11.692Z,2.40
2019-04-06T19:44:41.021Z,2.10
2019-04-06T19:47:10.258Z,2.87
2019-04-06T19:49:39.881Z,2.08
2019-04-06T19:52:09.587Z,3.13
2019-04-06T19:54:38.974Z,2.27
2019-04-06T19:57:08.640Z,4.00
2019-04-06T19:59:38.018Z,2.30
2019-04-06T20:02:07.761Z,2.30
2019-04-06T20:04:37.540Z,2.10
2019-04-06T20:07:06.905Z,2.70
2019-04-06T20:09:36.572Z,2.03
2019-04-06T20:12:07.793Z,3.30
2019-04-06T20:14:37.266Z,2.57
2019-04-06T20:17:06.957Z,2.37
2019-04-06T20:19:36.399Z,2.63
2019-04-06T20:22:05.695Z,2.70
2019-04-06T20:24:35.233Z,38.87
2019-04-06T20:27:04.552Z,3.00
2019-04-06T20:29:34.131Z,1.97
2019-04-06T20:32:03.434Z,2.00
2019-04-06T20:34:33.320Z,1.80
2019-04-06T20:37:02.588Z,2.40
2019-04-06T20:39:33.502Z,1.97
2019-04-06T20:42:03.043Z,1.90
2019-04-06T20:44:32.821Z,2.07
2019-04-06T20:47:02.102Z,2.40
2019-04-06T20:49:31.968Z,2.60
2019-04-06T20:52:01.854Z,2.10
2019-04-06T20:54:31.160Z,1.60
2019-04-06T20:57:00.489Z,5.93
2019-04-06T20:59:29.838Z,2.00
2019-04-06T21:01:59.079Z,2.03
2019-04-06T21:04:28.344Z,2.43
2019-04-06T21:06:57.619Z,4.13
2019-04-06T21:09:26.888Z,134.93
2019-04-06T21:11:56.117Z,165.23
2019-04-06T21:14:25.299Z,44.87
2019-04-06T21:16:54.627Z,67.90
2019-04-06T21:19:23.837Z,9.33
2019-04-06T21:21:53.519Z,2.37
2019-04-06T21:24:23.370Z,2.58
2019-04-06T21:26:52.607Z,5.58
2019-04-06T21:29:21.875Z,2.60
2019-04-06T21:31:51.101Z,7.70
2019-04-06T21:34:20.462Z,5.23
2019-04-06T21:36:49.729Z,2.40
2019-04-06T21:39:19.009Z,2.93
2019-04-06T21:41:48.684Z,5.53
2019-04-06T21:44:18.033Z,5.40
2019-04-06T21:46:47.301Z,3.13
2019-04-06T21:49:16.751Z,2.87
2019-04-06T21:51:45.955Z,2.17
2019-04-06T21:54:15.168Z,1.90
2019-04-06T21:56:44.430Z,2.20
2019-04-06T21:59:15.805Z,1.90
2019-04-06T22:01:45.026Z,2.00
2019-04-06T22:04:23.609Z,3.10
2019-04-06T22:06:45.309Z,3.67
2019-04-06T22:09:14.571Z,2.67
2019-04-06T22:11:43.801Z,3.00
2019-04-06T22:14:13.122Z,2.50
2019-04-06T22:16:43.284Z,2.80
2019-04-06T22:19:12.585Z,2.50
2019-04-06T22:21:41.884Z,2.27
2019-04-06T22:24:11.135Z,2.70
2019-04-06T22:26:40.594Z,2.40
2019-04-06T22:29:09.916Z,2.50
2019-04-06T22:31:39.155Z,2.23
2019-04-06T22:34:08.320Z,1.90
2019-04-06T22:36:37.502Z,1.70
2019-04-06T22:39:07.881Z,1.97
2019-04-06T22:41:37.732Z,1.60
2019-04-06T22:44:07.375Z,2.07
2019-04-06T22:46:37.117Z,1.67
2019-04-06T22:49:06.620Z,2.40
2019-04-06T22:51:35.913Z,1.98
2019-04-06T22:54:05.276Z,2.47
2019-04-06T22:56:34.500Z,2.33
2019-04-06T22:59:03.648Z,2.33
2019-04-06T23:01:34.667Z,1.87
2019-04-06T23:04:21.724Z,2.10
2019-04-06T23:07:00.823Z,2.17
2019-04-06T23:09:30.813Z,2.50
2019-04-06T23:12:00.694Z,1.95
2019-04-06T23:14:30.035Z,2.10
2019-04-06T23:16:59.814Z,2.93
2019-04-06T23:19:29.484Z,2.83
2019-04-06T23:21:58.653Z,2.10
2019-04-06T23:24:27.839Z,2.67
2019-04-06T23:26:57.037Z,3.67
2019-04-06T23:29:26.850Z,2.57
2019-04-06T23:31:56.225Z,3.50
2019-04-06T23:34:25.882Z,2.70
2019-04-06T23:36:55.718Z,2.12
2019-04-06T23:39:25.248Z,2.50
2019-04-06T23:41:54.528Z,4.60
2019-04-06T23:44:23.829Z,2.53
2019-04-06T23:46:52.996Z,2.63
2019-04-06T23:49:22.433Z,2.50
2019-04-06T23:51:52.102Z,5.00
2019-04-06T23:54:21.684Z,2.53
2019-04-06T23:56:51.824Z,2.10
2019-04-06T23:59:21.014Z,2.90
